sensor_id;sensor_type;location;lat;lon;timestamp;temperature;humidity
41762;DHT22;27441;50.860;0.258;2022-10-19T00:01:06;13.70;99.90
41762;DHT22;27441;50.860;0.258;2022-10-19T00:03:33;13.70;99.90
41762;DHT22;27441;50.860;0.258;2022-10-19T00:06:04;13.70;99.90
41762;DHT22;27441;50.860;0.258;2022-10-19T00:08:34;13.80;99.90
41762;DHT22;27441;50.860;0.258;2022-10-19T00:11:00;13.80;99.90
41762;DHT22;27441;50.860;0.258;2022-10-19T00:13:26;13.70;99.90
41762;DHT22;27441;50.860;0.258;2022-10-19T00:15:52;13.70;99.90
41762;DHT22;27441;50.860;0.258;2022-10-19T00:18:18;13.70;99.90
41762;DHT22;27441;50.860;0.258;2022-10-19T00:20:43;13.60;99.90
41762;DHT22;27441;50.860;0.258;2022-10-19T00:23:09;13.70;99.90
41762;DHT22;27441;50.860;0.258;2022-10-19T00:25:35;13.60;99.90
41762;DHT22;27441;50.860;0.258;2022-10-19T00:28:03;13.60;99.90
41762;DHT22;27441;50.860;0.258;2022-10-19T00:30:28;13.60;99.90
41762;DHT22;27441;50.860;0.258;2022-10-19T00:32:54;13.60;99.90
41762;DHT22;27441;50.860;0.258;2022-10-19T00:35:20;13.60;99.90
41762;DHT22;27441;50.860;0.258;2022-10-19T00:37:46;13.60;99.90
41762;DHT22;27441;50.860;0.258;2022-10-19T00:40:12;13.60;99.90
41762;DHT22;27441;50.860;0.258;2022-10-19T00:42:38;13.60;99.90
41762;DHT22;27441;50.860;0.258;2022-10-19T00:45:13;13.60;99.90
41762;DHT22;27441;50.860;0.258;2022-10-19T00:47:40;13.50;99.90
41762;DHT22;27441;50.860;0.258;2022-10-19T00:50:06;13.50;99.90
41762;DHT22;27441;50.860;0.258;2022-10-19T00:52:32;13.40;99.90
41762;DHT22;27441;50.860;0.258;2022-10-19T00:54:58;13.40;99.90
41762;DHT22;27441;50.860;0.258;2022-10-19T00:57:27;13.40;99.90
41762;DHT22;27441;50.860;0.258;2022-10-19T00:59:54;13.40;99.90
41762;DHT22;27441;50.860;0.258;2022-10-19T01:02:20;13.40;99.90
41762;DHT22;27441;50.860;0.258;2022-10-19T01:04:49;13.40;99.90
41762;DHT22;27441;50.860;0.258;2022-10-19T01:07:17;13.30;99.90
41762;DHT22;27441;50.860;0.258;2022-10-19T01:09:43;13.30;99.90
41762;DHT22;27441;50.860;0.258;2022-10-19T01:26:42;13.10;99.90
41762;DHT22;27441;50.860;0.258;2022-10-19T01:32:10;13.10;99.90
41762;DHT22;27441;50.860;0.258;2022-10-19T01:34:53;13.10;99.90
41762;DHT22;27441;50.860;0.258;2022-10-19T01:42:48;13.10;99.90
41762;DHT22;27441;50.860;0.258;2022-10-19T01:45:16;13.10;99.90
41762;DHT22;27441;50.860;0.258;2022-10-19T01:47:50;13.00;99.90
41762;DHT22;27441;50.860;0.258;2022-10-19T01:50:26;13.10;99.90
41762;DHT22;27441;50.860;0.258;2022-10-19T01:52:54;13.00;99.90
41762;DHT22;27441;50.860;0.258;2022-10-19T01:55:21;13.00;99.90
41762;DHT22;27441;50.860;0.258;2022-10-19T01:57:54;13.00;99.90
41762;DHT22;27441;50.860;0.258;2022-10-19T02:00:22;13.00;99.90
41762;DHT22;27441;50.860;0.258;2022-10-19T02:02:50;13.00;99.90
41762;DHT22;27441;50.860;0.258;2022-10-19T02:05:19;13.00;99.90
41762;DHT22;27441;50.860;0.258;2022-10-19T02:07:49;13.00;99.90
41762;DHT22;27441;50.860;0.258;2022-10-19T02:10:18;13.00;99.90
41762;DHT22;27441;50.860;0.258;2022-10-19T02:12:45;13.00;99.90
41762;DHT22;27441;50.860;0.258;2022-10-19T02:15:14;13.00;99.90
41762;DHT22;27441;50.860;0.258;2022-10-19T02:17:46;13.00;99.90
41762;DHT22;27441;50.860;0.258;2022-10-19T02:20:13;13.00;99.90
41762;DHT22;27441;50.860;0.258;2022-10-19T02:22:39;13.00;99.90
41762;DHT22;27441;50.860;0.258;2022-10-19T02:25:06;13.00;99.90
41762;DHT22;27441;50.860;0.258;2022-10-19T02:27:32;13.00;99.90
41762;DHT22;27441;50.860;0.258;2022-10-19T02:29:58;13.00;99.90
41762;DHT22;27441;50.860;0.258;2022-10-19T02:32:25;13.00;99.90
41762;DHT22;27441;50.860;0.258;2022-10-19T02:34:51;12.90;99.90
41762;DHT22;27441;50.860;0.258;2022-10-19T02:37:17;12.90;99.90
41762;DHT22;27441;50.860;0.258;2022-10-19T02:39:42;13.00;99.90
41762;DHT22;27441;50.860;0.258;2022-10-19T02:42:14;12.90;99.90
41762;DHT22;27441;50.860;0.258;2022-10-19T02:47:47;12.90;99.90
41762;DHT22;27441;50.860;0.258;2022-10-19T02:50:14;12.90;99.90
41762;DHT22;27441;50.860;0.258;2022-10-19T02:52:40;12.80;99.90
41762;DHT22;27441;50.860;0.258;2022-10-19T02:55:07;12.90;99.90
41762;DHT22;27441;50.860;0.258;2022-10-19T02:57:33;12.90;99.90
41762;DHT22;27441;50.860;0.258;2022-10-19T02:59:59;12.90;99.90
41762;DHT22;27441;50.860;0.258;2022-10-19T03:02:25;12.90;99.90
41762;DHT22;27441;50.860;0.258;2022-10-19T03:04:51;12.90;99.90
41762;DHT22;27441;50.860;0.258;2022-10-19T03:07:18;12.90;99.90
41762;DHT22;27441;50.860;0.258;2022-10-19T03:09:44;12.90;99.90
41762;DHT22;27441;50.860;0.258;2022-10-19T03:12:12;12.90;99.90
41762;DHT22;27441;50.860;0.258;2022-10-19T03:14:38;12.90;99.90
41762;DHT22;27441;50.860;0.258;2022-10-19T03:17:04;12.90;99.90
41762;DHT22;27441;50.860;0.258;2022-10-19T03:19:30;12.90;99.90
41762;DHT22;27441;50.860;0.258;2022-10-19T03:21:56;12.90;99.90
41762;DHT22;27441;50.860;0.258;2022-10-19T03:24:22;12.90;99.90
41762;DHT22;27441;50.860;0.258;2022-10-19T03:26:48;12.90;99.90
41762;DHT22;27441;50.860;0.258;2022-10-19T03:29:13;12.90;99.90
41762;DHT22;27441;50.860;0.258;2022-10-19T03:31:39;12.90;99.90
41762;DHT22;27441;50.860;0.258;2022-10-19T03:34:05;12.90;99.90
41762;DHT22;27441;50.860;0.258;2022-10-19T03:36:37;12.90;99.90
41762;DHT22;27441;50.860;0.258;2022-10-19T03:39:06;12.90;99.90
41762;DHT22;27441;50.860;0.258;2022-10-19T03:41:34;12.90;99.90
41762;DHT22;27441;50.860;0.258;2022-10-19T03:44:00;12.90;99.90
41762;DHT22;27441;50.860;0.258;2022-10-19T03:46:26;12.90;99.90
41762;DHT22;27441;50.860;0.258;2022-10-19T03:48:53;12.90;99.90
41762;DHT22;27441;50.860;0.258;2022-10-19T03:51:23;12.90;99.90
41762;DHT22;27441;50.860;0.258;2022-10-19T03:53:54;12.90;99.90
41762;DHT22;27441;50.860;0.258;2022-10-19T03:56:21;12.90;99.90
41762;DHT22;27441;50.860;0.258;2022-10-19T03:58:48;12.90;99.90
41762;DHT22;27441;50.860;0.258;2022-10-19T04:01:17;12.90;99.90
41762;DHT22;27441;50.860;0.258;2022-10-19T04:03:44;12.90;99.90
41762;DHT22;27441;50.860;0.258;2022-10-19T04:06:15;12.90;99.90
41762;DHT22;27441;50.860;0.258;2022-10-19T04:08:42;12.90;99.90
41762;DHT22;27441;50.860;0.258;2022-10-19T04:11:10;12.90;99.90
41762;DHT22;27441;50.860;0.258;2022-10-19T04:13:37;12.90;99.90
41762;DHT22;27441;50.860;0.258;2022-10-19T04:16:03;12.90;99.90
41762;DHT22;27441;50.860;0.258;2022-10-19T04:18:29;12.90;99.90
41762;DHT22;27441;50.860;0.258;2022-10-19T04:20:59;13.00;99.90
41762;DHT22;27441;50.860;0.258;2022-10-19T04:23:27;13.00;99.90
41762;DHT22;27441;50.860;0.258;2022-10-19T04:26:05;13.00;99.90
41762;DHT22;27441;50.860;0.258;2022-10-19T04:28:31;13.00;99.90
41762;DHT22;27441;50.860;0.258;2022-10-19T04:31:00;13.00;99.90
41762;DHT22;27441;50.860;0.258;2022-10-19T04:33:26;13.00;99.90
41762;DHT22;27441;50.860;0.258;2022-10-19T04:36:06;13.00;99.90
41762;DHT22;27441;50.860;0.258;2022-10-19T04:38:33;13.00;99.90
41762;DHT22;27441;50.860;0.258;2022-10-19T04:41:07;13.10;99.90
41762;DHT22;27441;50.860;0.258;2022-10-19T04:43:34;13.00;99.90
41762;DHT22;27441;50.860;0.258;2022-10-19T04:46:16;13.00;99.90
41762;DHT22;27441;50.860;0.258;2022-10-19T04:48:42;13.00;99.90
41762;DHT22;27441;50.860;0.258;2022-10-19T04:51:09;13.00;99.90
41762;DHT22;27441;50.860;0.258;2022-10-19T04:53:37;13.00;99.90
41762;DHT22;27441;50.860;0.258;2022-10-19T04:56:05;13.10;99.90
41762;DHT22;27441;50.860;0.258;2022-10-19T04:58:31;13.00;99.90
41762;DHT22;27441;50.860;0.258;2022-10-19T05:00:56;13.00;99.90
41762;DHT22;27441;50.860;0.258;2022-10-19T05:03:22;13.00;99.90
41762;DHT22;27441;50.860;0.258;2022-10-19T05:05:48;13.00;99.90
41762;DHT22;27441;50.860;0.258;2022-10-19T05:08:14;13.00;99.90
41762;DHT22;27441;50.860;0.258;2022-10-19T05:10:39;13.00;99.90
41762;DHT22;27441;50.860;0.258;2022-10-19T05:13:05;13.00;99.90
41762;DHT22;27441;50.860;0.258;2022-10-19T05:15:31;13.00;99.90
41762;DHT22;27441;50.860;0.258;2022-10-19T05:17:57;13.00;99.90
41762;DHT22;27441;50.860;0.258;2022-10-19T05:20:23;13.10;99.90
41762;DHT22;27441;50.860;0.258;2022-10-19T05:22:49;13.10;99.90
41762;DHT22;27441;50.860;0.258;2022-10-19T05:25:15;13.00;99.90
41762;DHT22;27441;50.860;0.258;2022-10-19T05:27:41;13.00;99.90
41762;DHT22;27441;50.860;0.258;2022-10-19T05:30:07;13.00;99.90
41762;DHT22;27441;50.860;0.258;2022-10-19T05:32:34;13.00;99.90
41762;DHT22;27441;50.860;0.258;2022-10-19T05:35:00;13.00;99.90
41762;DHT22;27441;50.860;0.258;2022-10-19T05:37:25;13.00;99.90
41762;DHT22;27441;50.860;0.258;2022-10-19T05:39:52;13.00;99.90
41762;DHT22;27441;50.860;0.258;2022-10-19T05:42:18;12.90;99.90
41762;DHT22;27441;50.860;0.258;2022-10-19T05:44:44;13.00;99.90
41762;DHT22;27441;50.860;0.258;2022-10-19T05:47:10;13.00;99.90
41762;DHT22;27441;50.860;0.258;2022-10-19T05:49:35;12.90;99.90
41762;DHT22;27441;50.860;0.258;2022-10-19T05:52:01;12.90;99.90
41762;DHT22;27441;50.860;0.258;2022-10-19T05:54:27;12.90;99.90
41762;DHT22;27441;50.860;0.258;2022-10-19T05:56:52;12.90;99.90
41762;DHT22;27441;50.860;0.258;2022-10-19T05:59:19;12.90;99.90
41762;DHT22;27441;50.860;0.258;2022-10-19T06:01:46;12.90;99.90
41762;DHT22;27441;50.860;0.258;2022-10-19T06:04:13;12.90;99.90
41762;DHT22;27441;50.860;0.258;2022-10-19T06:06:40;12.90;99.90
41762;DHT22;27441;50.860;0.258;2022-10-19T06:09:06;12.90;99.90
41762;DHT22;27441;50.860;0.258;2022-10-19T06:11:35;12.80;99.90
41762;DHT22;27441;50.860;0.258;2022-10-19T06:14:04;12.80;99.90
41762;DHT22;27441;50.860;0.258;2022-10-19T06:16:31;12.80;99.90
41762;DHT22;27441;50.860;0.258;2022-10-19T06:18:57;12.90;99.90
41762;DHT22;27441;50.860;0.258;2022-10-19T06:21:28;12.80;99.90
41762;DHT22;27441;50.860;0.258;2022-10-19T06:23:57;12.80;99.90
41762;DHT22;27441;50.860;0.258;2022-10-19T06:26:24;12.80;99.90
41762;DHT22;27441;50.860;0.258;2022-10-19T06:28:50;12.90;99.90
41762;DHT22;27441;50.860;0.258;2022-10-19T06:31:16;12.80;99.90
41762;DHT22;27441;50.860;0.258;2022-10-19T06:33:43;12.80;99.90
41762;DHT22;27441;50.860;0.258;2022-10-19T06:36:15;12.80;99.90
41762;DHT22;27441;50.860;0.258;2022-10-19T06:38:41;12.90;99.90
41762;DHT22;27441;50.860;0.258;2022-10-19T06:41:08;12.90;99.90
41762;DHT22;27441;50.860;0.258;2022-10-19T06:43:34;12.90;99.90
41762;DHT22;27441;50.860;0.258;2022-10-19T06:46:08;12.90;99.90
41762;DHT22;27441;50.860;0.258;2022-10-19T06:48:34;12.90;99.90
41762;DHT22;27441;50.860;0.258;2022-10-19T06:51:01;12.90;99.90
41762;DHT22;27441;50.860;0.258;2022-10-19T06:53:27;12.90;99.90
41762;DHT22;27441;50.860;0.258;2022-10-19T06:55:57;12.90;99.90
41762;DHT22;27441;50.860;0.258;2022-10-19T06:58:24;12.90;99.90
41762;DHT22;27441;50.860;0.258;2022-10-19T07:00:57;12.90;99.90
41762;DHT22;27441;50.860;0.258;2022-10-19T07:03:28;12.90;99.90
41762;DHT22;27441;50.860;0.258;2022-10-19T07:05:59;12.90;99.90
41762;DHT22;27441;50.860;0.258;2022-10-19T07:08:26;12.90;99.90
41762;DHT22;27441;50.860;0.258;2022-10-19T07:10:55;12.90;99.90
41762;DHT22;27441;50.860;0.258;2022-10-19T07:13:21;12.90;99.90
41762;DHT22;27441;50.860;0.258;2022-10-19T07:15:48;12.90;99.90
41762;DHT22;27441;50.860;0.258;2022-10-19T07:18:14;12.90;99.90
41762;DHT22;27441;50.860;0.258;2022-10-19T07:20:39;13.00;99.90
41762;DHT22;27441;50.860;0.258;2022-10-19T07:23:06;13.00;99.90
41762;DHT22;27441;50.860;0.258;2022-10-19T07:25:32;13.00;99.90
41762;DHT22;27441;50.860;0.258;2022-10-19T07:27:57;13.10;99.90
41762;DHT22;27441;50.860;0.258;2022-10-19T07:30:24;13.10;99.90
41762;DHT22;27441;50.860;0.258;2022-10-19T07:32:49;13.10;99.90
41762;DHT22;27441;50.860;0.258;2022-10-19T07:35:15;13.20;99.90
41762;DHT22;27441;50.860;0.258;2022-10-19T07:37:41;13.20;99.90
41762;DHT22;27441;50.860;0.258;2022-10-19T07:40:07;13.20;99.90
41762;DHT22;27441;50.860;0.258;2022-10-19T07:42:33;13.30;99.90
41762;DHT22;27441;50.860;0.258;2022-10-19T07:45:03;13.30;99.90
41762;DHT22;27441;50.860;0.258;2022-10-19T07:47:28;13.30;99.90
41762;DHT22;27441;50.860;0.258;2022-10-19T07:49:54;13.40;99.90
41762;DHT22;27441;50.860;0.258;2022-10-19T07:52:20;13.40;99.90
41762;DHT22;27441;50.860;0.258;2022-10-19T07:54:45;13.40;99.90
41762;DHT22;27441;50.860;0.258;2022-10-19T07:57:14;13.50;99.90
41762;DHT22;27441;50.860;0.258;2022-10-19T07:59:39;13.60;99.90
41762;DHT22;27441;50.860;0.258;2022-10-19T08:02:12;13.60;99.90
41762;DHT22;27441;50.860;0.258;2022-10-19T08:04:38;13.70;99.90
41762;DHT22;27441;50.860;0.258;2022-10-19T08:07:04;13.70;99.90
41762;DHT22;27441;50.860;0.258;2022-10-19T08:09:30;13.70;99.90
41762;DHT22;27441;50.860;0.258;2022-10-19T08:11:56;13.80;99.90
41762;DHT22;27441;50.860;0.258;2022-10-19T08:14:21;13.80;99.90
41762;DHT22;27441;50.860;0.258;2022-10-19T08:16:47;13.80;99.90
41762;DHT22;27441;50.860;0.258;2022-10-19T08:19:14;13.90;99.90
41762;DHT22;27441;50.860;0.258;2022-10-19T08:21:43;13.90;99.90
41762;DHT22;27441;50.860;0.258;2022-10-19T08:24:10;13.90;99.90
41762;DHT22;27441;50.860;0.258;2022-10-19T08:26:37;14.00;99.90
41762;DHT22;27441;50.860;0.258;2022-10-19T08:29:14;14.00;99.90
41762;DHT22;27441;50.860;0.258;2022-10-19T08:31:42;14.10;99.90
41762;DHT22;27441;50.860;0.258;2022-10-19T08:34:08;14.10;99.90
41762;DHT22;27441;50.860;0.258;2022-10-19T08:36:34;14.10;99.90
41762;DHT22;27441;50.860;0.258;2022-10-19T08:39:03;14.20;99.90
41762;DHT22;27441;50.860;0.258;2022-10-19T08:49:31;14.40;99.90
41762;DHT22;27441;50.860;0.258;2022-10-19T08:52:04;14.50;99.90
41762;DHT22;27441;50.860;0.258;2022-10-19T08:54:40;14.50;99.90
41762;DHT22;27441;50.860;0.258;2022-10-19T08:59:49;14.70;99.90
41762;DHT22;27441;50.860;0.258;2022-10-19T09:07:43;15.00;99.90
41762;DHT22;27441;50.860;0.258;2022-10-19T09:10:16;15.10;99.90
41762;DHT22;27441;50.860;0.258;2022-10-19T09:15:17;15.20;99.90
41762;DHT22;27441;50.860;0.258;2022-10-19T09:17:43;15.30;99.90
41762;DHT22;27441;50.860;0.258;2022-10-19T09:20:21;15.40;99.90
41762;DHT22;27441;50.860;0.258;2022-10-19T09:23:06;15.60;99.90
41762;DHT22;27441;50.860;0.258;2022-10-19T09:25:37;15.70;99.90
41762;DHT22;27441;50.860;0.258;2022-10-19T09:30:46;15.80;99.90
41762;DHT22;27441;50.860;0.258;2022-10-19T09:33:16;16.00;99.90
41762;DHT22;27441;50.860;0.258;2022-10-19T09:35:44;16.10;99.90
41762;DHT22;27441;50.860;0.258;2022-10-19T09:38:14;16.30;99.90
41762;DHT22;27441;50.860;0.258;2022-10-19T09:40:41;16.40;99.90
41762;DHT22;27441;50.860;0.258;2022-10-19T09:43:08;16.40;99.90
41762;DHT22;27441;50.860;0.258;2022-10-19T09:45:58;16.50;99.90
41762;DHT22;27441;50.860;0.258;2022-10-19T09:51:00;16.80;99.90
41762;DHT22;27441;50.860;0.258;2022-10-19T09:53:27;16.90;99.90
41762;DHT22;27441;50.860;0.258;2022-10-19T09:56:02;16.90;99.90
41762;DHT22;27441;50.860;0.258;2022-10-19T09:58:29;16.90;99.90
41762;DHT22;27441;50.860;0.258;2022-10-19T10:00:55;16.80;99.90
41762;DHT22;27441;50.860;0.258;2022-10-19T10:03:25;16.80;99.90
41762;DHT22;27441;50.860;0.258;2022-10-19T10:05:51;16.70;99.90
41762;DHT22;27441;50.860;0.258;2022-10-19T10:08:20;16.80;99.90
41762;DHT22;27441;50.860;0.258;2022-10-19T10:11:09;17.10;99.90
41762;DHT22;27441;50.860;0.258;2022-10-19T10:13:39;17.40;99.90
41762;DHT22;27441;50.860;0.258;2022-10-19T10:16:14;17.60;99.90
41762;DHT22;27441;50.860;0.258;2022-10-19T10:18:53;17.70;99.90
41762;DHT22;27441;50.860;0.258;2022-10-19T10:21:23;17.80;99.90
41762;DHT22;27441;50.860;0.258;2022-10-19T10:24:03;18.10;99.90
41762;DHT22;27441;50.860;0.258;2022-10-19T10:26:30;18.30;99.90
41762;DHT22;27441;50.860;0.258;2022-10-19T10:28:56;18.20;99.90
41762;DHT22;27441;50.860;0.258;2022-10-19T10:31:27;18.20;99.90
41762;DHT22;27441;50.860;0.258;2022-10-19T10:33:58;18.20;99.90
41762;DHT22;27441;50.860;0.258;2022-10-19T10:36:28;18.00;99.90
41762;DHT22;27441;50.860;0.258;2022-10-19T10:39:06;17.70;99.90
41762;DHT22;27441;50.860;0.258;2022-10-19T10:41:38;17.70;99.90
41762;DHT22;27441;50.860;0.258;2022-10-19T10:44:26;17.80;99.90
41762;DHT22;27441;50.860;0.258;2022-10-19T10:46:56;17.60;99.90
41762;DHT22;27441;50.860;0.258;2022-10-19T10:49:30;17.70;99.90
41762;DHT22;27441;50.860;0.258;2022-10-19T10:52:00;17.60;99.90
41762;DHT22;27441;50.860;0.258;2022-10-19T10:54:30;17.40;99.90
41762;DHT22;27441;50.860;0.258;2022-10-19T10:59:57;17.10;99.90
41762;DHT22;27441;50.860;0.258;2022-10-19T11:07:41;17.00;99.90
41762;DHT22;27441;50.860;0.258;2022-10-19T11:10:20;17.10;99.90
41762;DHT22;27441;50.860;0.258;2022-10-19T11:12:53;17.20;99.90
41762;DHT22;27441;50.860;0.258;2022-10-19T11:15:36;17.50;99.90
41762;DHT22;27441;50.860;0.258;2022-10-19T11:18:10;17.80;99.90
41762;DHT22;27441;50.860;0.258;2022-10-19T11:20:44;18.20;99.90
41762;DHT22;27441;50.860;0.258;2022-10-19T11:23:20;18.50;99.90
41762;DHT22;27441;50.860;0.258;2022-10-19T11:34:10;18.60;99.90
41762;DHT22;27441;50.860;0.258;2022-10-19T11:36:58;18.60;99.90
41762;DHT22;27441;50.860;0.258;2022-10-19T11:40:02;18.60;99.90
41762;DHT22;27441;50.860;0.258;2022-10-19T11:51:45;18.00;99.90
41762;DHT22;27441;50.860;0.258;2022-10-19T12:13:54;17.80;99.90
41762;DHT22;27441;50.860;0.258;2022-10-19T12:16:27;17.60;99.90
41762;DHT22;27441;50.860;0.258;2022-10-19T12:18:58;17.50;99.90
41762;DHT22;27441;50.860;0.258;2022-10-19T12:21:29;17.50;99.90
41762;DHT22;27441;50.860;0.258;2022-10-19T12:23:57;17.60;99.90
41762;DHT22;27441;50.860;0.258;2022-10-19T12:26:24;17.60;99.90
41762;DHT22;27441;50.860;0.258;2022-10-19T12:28:58;17.50;99.90
41762;DHT22;27441;50.860;0.258;2022-10-19T12:31:24;17.40;99.90
41762;DHT22;27441;50.860;0.258;2022-10-19T12:37:11;17.30;99.90
41762;DHT22;27441;50.860;0.258;2022-10-19T12:40:03;17.30;99.90
41762;DHT22;27441;50.860;0.258;2022-10-19T12:48:18;17.20;99.90
41762;DHT22;27441;50.860;0.258;2022-10-19T12:53:36;17.30;99.90
41762;DHT22;27441;50.860;0.258;2022-10-19T12:58:38;17.30;99.90
41762;DHT22;27441;50.860;0.258;2022-10-19T13:03:42;17.30;99.90
41762;DHT22;27441;50.860;0.258;2022-10-19T13:06:12;17.30;99.90
41762;DHT22;27441;50.860;0.258;2022-10-19T13:08:45;17.40;99.90
41762;DHT22;27441;50.860;0.258;2022-10-19T13:11:13;17.40;99.90
41762;DHT22;27441;50.860;0.258;2022-10-19T13:19:11;17.50;99.90
41762;DHT22;27441;50.860;0.258;2022-10-19T13:24:28;17.50;99.90
41762;DHT22;27441;50.860;0.258;2022-10-19T13:29:40;17.40;99.90
41762;DHT22;27441;50.860;0.258;2022-10-19T13:32:35;17.40;99.90
41762;DHT22;27441;50.860;0.258;2022-10-19T13:35:32;17.40;99.90
41762;DHT22;27441;50.860;0.258;2022-10-19T13:38:08;17.30;99.90
41762;DHT22;27441;50.860;0.258;2022-10-19T13:40:36;17.30;99.90
41762;DHT22;27441;50.860;0.258;2022-10-19T13:43:03;17.30;99.90
41762;DHT22;27441;50.860;0.258;2022-10-19T13:45:29;17.20;99.90
41762;DHT22;27441;50.860;0.258;2022-10-19T13:48:15;17.30;99.90
41762;DHT22;27441;50.860;0.258;2022-10-19T13:50:55;17.30;99.90
41762;DHT22;27441;50.860;0.258;2022-10-19T13:53:43;17.40;99.90
41762;DHT22;27441;50.860;0.258;2022-10-19T13:56:36;17.40;99.90
41762;DHT22;27441;50.860;0.258;2022-10-19T14:01:59;17.30;99.90
41762;DHT22;27441;50.860;0.258;2022-10-19T14:07:24;17.20;99.90
41762;DHT22;27441;50.860;0.258;2022-10-19T14:10:09;17.10;99.90
41762;DHT22;27441;50.860;0.258;2022-10-19T14:12:41;17.10;99.90
41762;DHT22;27441;50.860;0.258;2022-10-19T14:15:23;17.10;99.90
41762;DHT22;27441;50.860;0.258;2022-10-19T14:17:49;17.10;99.90
41762;DHT22;27441;50.860;0.258;2022-10-19T14:20:35;17.10;99.90
41762;DHT22;27441;50.860;0.258;2022-10-19T14:23:19;17.10;99.90
41762;DHT22;27441;50.860;0.258;2022-10-19T14:25:54;17.00;99.90
41762;DHT22;27441;50.860;0.258;2022-10-19T14:28:21;16.90;99.90
41762;DHT22;27441;50.860;0.258;2022-10-19T14:31:05;16.80;99.90
41762;DHT22;27441;50.860;0.258;2022-10-19T14:33:37;16.80;99.90
41762;DHT22;27441;50.860;0.258;2022-10-19T14:36:05;16.80;99.90
41762;DHT22;27441;50.860;0.258;2022-10-19T14:38:32;16.80;99.90
41762;DHT22;27441;50.860;0.258;2022-10-19T14:41:03;16.80;99.90
41762;DHT22;27441;50.860;0.258;2022-10-19T14:43:31;16.90;99.90
41762;DHT22;27441;50.860;0.258;2022-10-19T14:48:34;16.90;99.90
41762;DHT22;27441;50.860;0.258;2022-10-19T14:51:01;16.90;99.90
41762;DHT22;27441;50.860;0.258;2022-10-19T14:53:40;16.80;99.90
41762;DHT22;27441;50.860;0.258;2022-10-19T14:56:24;16.80;99.90
41762;DHT22;27441;50.860;0.258;2022-10-19T14:58:58;16.80;99.90
41762;DHT22;27441;50.860;0.258;2022-10-19T15:01:25;16.80;99.90
41762;DHT22;27441;50.860;0.258;2022-10-19T15:03:51;16.80;99.90
41762;DHT22;27441;50.860;0.258;2022-10-19T15:06:24;16.70;99.90
41762;DHT22;27441;50.860;0.258;2022-10-19T15:09:03;16.70;99.90
41762;DHT22;27441;50.860;0.258;2022-10-19T15:11:35;16.60;99.90
41762;DHT22;27441;50.860;0.258;2022-10-19T15:14:19;16.60;99.90
41762;DHT22;27441;50.860;0.258;2022-10-19T15:16:52;16.60;99.90
41762;DHT22;27441;50.860;0.258;2022-10-19T15:19:27;16.50;99.90
41762;DHT22;27441;50.860;0.258;2022-10-19T15:22:15;16.50;99.90
41762;DHT22;27441;50.860;0.258;2022-10-19T15:25:22;16.40;99.90
41762;DHT22;27441;50.860;0.258;2022-10-19T15:27:48;16.30;99.90
41762;DHT22;27441;50.860;0.258;2022-10-19T15:32:48;16.30;99.90
41762;DHT22;27441;50.860;0.258;2022-10-19T15:35:42;16.20;99.90
41762;DHT22;27441;50.860;0.258;2022-10-19T15:38:25;16.20;99.90
41762;DHT22;27441;50.860;0.258;2022-10-19T15:40:56;16.20;99.90
41762;DHT22;27441;50.860;0.258;2022-10-19T15:43:36;16.20;99.90
41762;DHT22;27441;50.860;0.258;2022-10-19T15:56:22;16.20;99.90
41762;DHT22;27441;50.860;0.258;2022-10-19T15:58:52;16.10;99.90
41762;DHT22;27441;50.860;0.258;2022-10-19T16:01:20;16.10;99.90
41762;DHT22;27441;50.860;0.258;2022-10-19T16:03:47;16.10;99.90
41762;DHT22;27441;50.860;0.258;2022-10-19T16:06:15;16.10;99.90
41762;DHT22;27441;50.860;0.258;2022-10-19T16:08:41;16.10;99.90
41762;DHT22;27441;50.860;0.258;2022-10-19T16:11:14;16.00;99.90
41762;DHT22;27441;50.860;0.258;2022-10-19T16:13:40;16.00;99.90
41762;DHT22;27441;50.860;0.258;2022-10-19T16:16:09;16.00;99.90
41762;DHT22;27441;50.860;0.258;2022-10-19T16:18:35;16.00;99.90
41762;DHT22;27441;50.860;0.258;2022-10-19T16:21:01;16.00;99.90
41762;DHT22;27441;50.860;0.258;2022-10-19T16:23:27;16.00;99.90
41762;DHT22;27441;50.860;0.258;2022-10-19T16:25:55;15.90;99.90
41762;DHT22;27441;50.860;0.258;2022-10-19T16:28:21;15.90;99.90
41762;DHT22;27441;50.860;0.258;2022-10-19T16:30:53;15.90;99.90
41762;DHT22;27441;50.860;0.258;2022-10-19T16:33:20;15.90;99.90
41762;DHT22;27441;50.860;0.258;2022-10-19T16:35:45;15.90;99.90
41762;DHT22;27441;50.860;0.258;2022-10-19T16:38:11;15.90;99.90
41762;DHT22;27441;50.860;0.258;2022-10-19T16:40:37;15.80;99.90
41762;DHT22;27441;50.860;0.258;2022-10-19T16:43:03;15.80;99.90
41762;DHT22;27441;50.860;0.258;2022-10-19T16:45:29;15.80;99.90
41762;DHT22;27441;50.860;0.258;2022-10-19T16:47:55;15.70;99.90
41762;DHT22;27441;50.860;0.258;2022-10-19T16:50:21;15.70;99.90
41762;DHT22;27441;50.860;0.258;2022-10-19T16:52:48;15.70;99.90
41762;DHT22;27441;50.860;0.258;2022-10-19T16:55:27;15.70;99.90
41762;DHT22;27441;50.860;0.258;2022-10-19T16:57:53;15.70;99.90
41762;DHT22;27441;50.860;0.258;2022-10-19T17:00:20;15.60;99.90
41762;DHT22;27441;50.860;0.258;2022-10-19T17:02:46;15.60;99.90
41762;DHT22;27441;50.860;0.258;2022-10-19T17:05:11;15.60;99.90
41762;DHT22;27441;50.860;0.258;2022-10-19T17:07:37;15.60;99.90
41762;DHT22;27441;50.860;0.258;2022-10-19T17:10:03;15.60;99.90
41762;DHT22;27441;50.860;0.258;2022-10-19T17:12:29;15.50;99.90
41762;DHT22;27441;50.860;0.258;2022-10-19T17:14:54;15.50;99.90
41762;DHT22;27441;50.860;0.258;2022-10-19T17:17:20;15.50;99.90
41762;DHT22;27441;50.860;0.258;2022-10-19T17:19:46;15.50;99.90
41762;DHT22;27441;50.860;0.258;2022-10-19T17:22:13;15.50;99.90
41762;DHT22;27441;50.860;0.258;2022-10-19T17:24:39;15.50;99.90
41762;DHT22;27441;50.860;0.258;2022-10-19T17:27:05;15.40;99.90
41762;DHT22;27441;50.860;0.258;2022-10-19T17:29:31;15.40;99.90
41762;DHT22;27441;50.860;0.258;2022-10-19T17:31:57;15.50;99.90
41762;DHT22;27441;50.860;0.258;2022-10-19T17:34:23;15.40;99.90
41762;DHT22;27441;50.860;0.258;2022-10-19T17:36:49;15.40;99.90
41762;DHT22;27441;50.860;0.258;2022-10-19T17:39:20;15.40;99.90
41762;DHT22;27441;50.860;0.258;2022-10-19T17:41:47;15.40;99.90
41762;DHT22;27441;50.860;0.258;2022-10-19T17:44:15;15.30;99.90
41762;DHT22;27441;50.860;0.258;2022-10-19T17:46:41;15.30;99.90
41762;DHT22;27441;50.860;0.258;2022-10-19T17:49:06;15.30;99.90
41762;DHT22;27441;50.860;0.258;2022-10-19T17:51:34;15.30;99.90
41762;DHT22;27441;50.860;0.258;2022-10-19T17:54:06;15.20;99.90
41762;DHT22;27441;50.860;0.258;2022-10-19T17:56:33;15.30;99.90
41762;DHT22;27441;50.860;0.258;2022-10-19T17:58:59;15.20;99.90
41762;DHT22;27441;50.860;0.258;2022-10-19T18:01:27;15.20;99.90
41762;DHT22;27441;50.860;0.258;2022-10-19T18:03:53;15.20;99.90
41762;DHT22;27441;50.860;0.258;2022-10-19T18:06:25;15.20;99.90
41762;DHT22;27441;50.860;0.258;2022-10-19T18:08:53;15.20;99.90